Time,TemperatureF,DewpointF,PressureIn,WindDirection,WindDirectionDegrees,WindSpeedMPH,WindSpeedGustMPH,Humidity,HourlyPrecipIn,Conditions,Clouds,dailyrainin,SoftwareType,DateUTC
2013-06-10 00:01:00,77.6,75.1,30.09,ESE,110,0.0,0.0,92,0.00,,---,0.00,VWS V14.01,2013-06-10 04:01:00,
2013-06-10 00:02:00,77.6,75.1,30.09,ESE,110,0.0,1.0,92,0.00,,---,0.00,VWS V14.01,2013-06-10 04:02:00,
2013-06-10 00:03:00,77.5,75.0,30.09,ESE,109,0.0,1.0,92,0.00,,---,0.00,VWS V14.01,2013-06-10 04:03:00,
2013-06-10 00:08:00,77.6,75.1,30.09,ESE,109,0.0,1.0,92,0.00,,---,0.00,VWS V14.01,2013-06-10 04:08:00,
2013-06-10 00:13:00,77.6,75.1,30.09,SW,233,0.0,1.0,92,0.00,,---,0.00,VWS V14.01,2013-06-10 04:13:00,
2013-06-10 00:19:00,77.6,75.1,30.10,SW,228,0.0,1.0,92,0.00,,---,0.00,VWS V14.01,2013-06-10 04:19:00,
2013-06-10 00:24:00,77.5,75.0,30.10,SW,228,0.0,1.0,92,0.00,,---,0.00,VWS V14.01,2013-06-10 04:24:00,
2013-06-10 00:29:00,77.5,75.0,30.10,SW,228,0.0,1.0,92,0.00,,---,0.00,VWS V14.01,2013-06-10 04:29:00,
2013-06-10 00:34:00,77.5,75.3,30.10,SW,228,0.0,0.0,93,0.00,,---,0.00,VWS V14.01,2013-06-10 04:34:00,
2013-06-10 00:39:00,77.4,74.9,30.10,SW,228,0.0,0.0,92,0.00,,---,0.00,VWS V14.01,2013-06-10 04:39:00,
2013-06-10 00:44:00,77.3,75.1,30.10,SW,228,0.0,0.0,93,0.00,,---,0.00,VWS V14.01,2013-06-10 04:44:00,
2013-06-10 00:49:00,77.2,75.0,30.10,SW,228,0.0,0.0,93,0.00,,---,0.00,VWS V14.01,2013-06-10 04:49:00,
2013-06-10 00:54:00,77.1,74.9,30.10,SW,228,0.0,0.0,93,0.00,,---,0.00,VWS V14.01,2013-06-10 04:54:00,
2013-06-10 00:59:00,77.1,74.9,30.09,SW,228,0.0,1.0,93,0.00,,---,0.00,VWS V14.01,2013-06-10 04:59:00,
2013-06-10 01:04:00,77.0,74.8,30.09,SW,228,0.0,0.0,93,0.00,,---,0.00,VWS V14.01,2013-06-10 05:04:00,
2013-06-10 01:09:00,76.8,74.6,30.09,SW,228,0.0,0.0,93,0.00,,---,0.00,VWS V14.01,2013-06-10 05:09:00,
2013-06-10 01:14:00,76.7,74.5,30.09,SW,228,0.0,0.0,93,0.00,,---,0.00,VWS V14.01,2013-06-10 05:14:00,
2013-06-10 01:19:00,76.5,74.3,30.09,SW,228,0.0,0.0,93,0.00,,---,0.00,VWS V14.01,2013-06-10 05:19:00,
2013-06-10 01:24:00,76.5,74.7,30.09,SW,228,0.0,0.0,94,0.00,,---,0.00,VWS V14.01,2013-06-10 05:24:00,
2013-06-10 01:30:00,76.5,74.7,30.09,SW,228,0.0,0.0,94,0.00,,---,0.00,VWS V14.01,2013-06-10 05:30:00,
2013-06-10 01:35:00,76.7,74.8,30.09,WNW,283,0.0,1.0,94,0.00,,---,0.00,VWS V14.01,2013-06-10 05:35:00,
2013-06-10 01:40:00,76.7,74.8,30.09,WNW,284,0.0,1.0,94,0.00,,---,0.00,VWS V14.01,2013-06-10 05:40:00,
2013-06-10 01:45:00,76.6,74.8,30.09,WNW,284,0.0,1.0,94,0.00,,---,0.00,VWS V14.01,2013-06-10 05:45:00,
2013-06-10 01:50:00,76.5,74.7,30.09,WNW,284,0.0,1.0,94,0.00,,---,0.00,VWS V14.01,2013-06-10 05:50:00,
2013-06-10 01:55:00,76.5,75.0,30.09,WNW,283,0.0,1.0,95,0.00,,---,0.00,VWS V14.01,2013-06-10 05:55:00,
2013-06-10 02:00:00,76.6,74.8,30.09,WNW,297,0.0,0.0,94,0.00,,---,0.00,VWS V14.01,2013-06-10 06:00:00,
2013-06-10 02:05:00,76.5,74.7,30.09,WNW,296,0.0,0.0,94,0.00,,---,0.00,VWS V14.01,2013-06-10 06:05:00,
2013-06-10 02:10:00,76.4,74.6,30.09,WNW,297,0.0,0.0,94,0.00,,---,0.00,VWS V14.01,2013-06-10 06:10:00,
2013-06-10 02:15:00,76.3,74.4,30.08,WNW,297,0.0,0.0,94,0.00,,---,0.00,VWS V14.01,2013-06-10 06:15:00,
2013-06-10 02:20:00,76.3,74.8,30.08,WNW,295,0.0,0.0,95,0.00,,---,0.00,VWS V14.01,2013-06-10 06:20:00,
2013-06-10 02:26:00,76.2,74.7,30.08,WNW,295,0.0,0.0,95,0.00,,---,0.00,VWS V14.01,2013-06-10 06:26:00,
2013-06-10 02:31:00,76.2,74.7,30.09,WNW,295,0.0,0.0,95,0.00,,---,0.00,VWS V14.01,2013-06-10 06:31:00,
2013-06-10 02:36:00,76.2,74.7,30.08,WNW,297,0.0,0.0,95,0.00,,---,0.00,VWS V14.01,2013-06-10 06:36:00,
2013-06-10 02:41:00,76.1,74.6,30.08,WNW,296,0.0,0.0,95,0.00,,---,0.00,VWS V14.01,2013-06-10 06:41:00,
2013-06-10 02:46:00,76.3,74.8,30.08,WNW,298,0.0,1.0,95,0.00,,---,0.00,VWS V14.01,2013-06-10 06:46:00,
2013-06-10 02:51:00,76.2,74.7,30.08,WNW,298,0.0,1.0,95,0.00,,---,0.00,VWS V14.01,2013-06-10 06:51:00,
2013-06-10 02:56:00,76.0,74.5,30.08,WNW,298,0.0,1.0,95,0.00,,---,0.00,VWS V14.01,2013-06-10 06:56:00,
2013-06-10 03:01:00,75.9,74.4,30.08,WNW,298,0.0,0.0,95,0.00,,---,0.00,VWS V14.01,2013-06-10 07:01:00,
2013-06-10 03:06:00,75.9,74.4,30.08,WNW,298,0.0,0.0,95,0.00,,---,0.00,VWS V14.01,2013-06-10 07:06:00,
2013-06-10 03:11:00,75.8,74.3,30.08,WNW,298,0.0,0.0,95,0.00,,---,0.00,VWS V14.01,2013-06-10 07:11:00,
2013-06-10 03:16:00,75.9,74.4,30.08,WNW,297,0.0,0.0,95,0.00,,---,0.00,VWS V14.01,2013-06-10 07:16:00,
2013-06-10 03:21:00,75.9,74.7,30.07,WNW,297,0.0,1.0,96,0.00,,---,0.00,VWS V14.01,2013-06-10 07:21:00,
2013-06-10 03:26:00,75.8,74.3,30.07,WNW,296,0.0,0.0,95,0.00,,---,0.00,VWS V14.01,2013-06-10 07:26:00,
2013-06-10 03:31:00,75.8,74.3,30.07,WNW,297,0.0,0.0,95,0.00,,---,0.00,VWS V14.01,2013-06-10 07:31:00,
2013-06-10 03:36:00,75.6,74.1,30.07,WNW,297,0.0,0.0,95,0.00,,---,0.00,VWS V14.01,2013-06-10 07:36:00,
2013-06-10 03:42:00,75.5,74.0,30.07,WNW,298,0.0,0.0,95,0.00,,---,0.00,VWS V14.01,2013-06-10 07:42:00,
2013-06-10 03:47:00,75.5,74.3,30.07,WNW,296,0.0,0.0,96,0.00,,---,0.00,VWS V14.01,2013-06-10 07:47:00,
2013-06-10 03:52:00,75.5,74.3,30.07,WNW,296,0.0,0.0,96,0.00,,---,0.00,VWS V14.01,2013-06-10 07:52:00,
2013-06-10 03:57:00,75.5,74.3,30.07,WNW,297,0.0,0.0,96,0.00,,---,0.00,VWS V14.01,2013-06-10 07:57:00,
2013-06-10 04:02:00,75.5,74.3,30.07,WNW,296,0.0,0.0,96,0.00,,---,0.00,VWS V14.01,2013-06-10 08:02:00,
2013-06-10 04:07:00,75.7,74.5,30.07,WNW,297,0.0,0.0,96,0.00,,---,0.00,VWS V14.01,2013-06-10 08:07:00,
2013-06-10 04:12:00,75.7,74.5,30.07,WNW,295,0.0,0.0,96,0.00,,---,0.00,VWS V14.01,2013-06-10 08:12:00,
2013-06-10 04:17:00,75.7,74.5,30.07,WNW,295,0.0,0.0,96,0.00,,---,0.00,VWS V14.01,2013-06-10 08:17:00,
2013-06-10 04:22:00,75.5,74.3,30.08,WNW,295,0.0,0.0,96,0.00,,---,0.00,VWS V14.01,2013-06-10 08:22:00,
2013-06-10 04:27:00,75.4,74.2,30.07,WNW,295,0.0,0.0,96,0.00,,---,0.00,VWS V14.01,2013-06-10 08:27:00,
2013-06-10 04:32:00,75.4,74.2,30.07,WNW,295,0.0,0.0,96,0.00,,---,0.00,VWS V14.01,2013-06-10 08:32:00,
2013-06-10 04:37:00,75.3,74.1,30.08,WNW,295,0.0,0.0,96,0.00,,---,0.00,VWS V14.01,2013-06-10 08:37:00,
2013-06-10 04:42:00,75.2,74.0,30.07,WNW,295,0.0,0.0,96,0.00,,---,0.00,VWS V14.01,2013-06-10 08:42:00,
2013-06-10 04:47:00,75.2,74.0,30.07,WNW,295,0.0,0.0,96,0.00,,---,0.00,VWS V14.01,2013-06-10 08:47:00,
2013-06-10 04:53:00,75.2,74.0,30.07,WNW,295,0.0,0.0,96,0.00,,---,0.00,VWS V14.01,2013-06-10 08:53:00,
2013-06-10 04:58:00,75.3,74.1,30.07,WNW,296,0.0,0.0,96,0.00,,---,0.00,VWS V14.01,2013-06-10 08:58:00,
2013-06-10 05:03:00,75.4,74.2,30.07,WNW,300,0.0,1.0,96,0.00,,---,0.00,VWS V14.01,2013-06-10 09:03:00,
2013-06-10 05:08:00,75.4,74.2,30.07,WNW,300,0.0,1.0,96,0.00,,---,0.00,VWS V14.01,2013-06-10 09:08:00,
2013-06-10 05:13:00,75.3,74.1,30.07,WNW,300,0.0,1.0,96,0.00,,---,0.00,VWS V14.01,2013-06-10 09:13:00,
2013-06-10 05:18:00,75.3,74.1,30.07,WNW,300,0.0,1.0,96,0.00,,---,0.00,VWS V14.01,2013-06-10 09:18:00,
2013-06-10 05:23:00,75.2,74.0,30.07,WNW,300,0.0,1.0,96,0.00,,---,0.00,VWS V14.01,2013-06-10 09:23:00,
2013-06-10 05:28:00,75.1,73.9,30.07,WNW,300,0.0,1.0,96,0.00,,---,0.00,VWS V14.01,2013-06-10 09:28:00,
2013-06-10 05:33:00,75.1,73.9,30.07,WNW,300,0.0,0.0,96,0.00,,---,0.00,VWS V14.01,2013-06-10 09:33:00,
2013-06-10 05:38:00,75.0,73.8,30.07,WNW,300,0.0,0.0,96,0.00,,---,0.00,VWS V14.01,2013-06-10 09:38:00,
2013-06-10 05:43:00,74.9,73.7,30.07,WNW,298,0.0,0.0,96,0.00,,---,0.00,VWS V14.01,2013-06-10 09:43:00,
2013-06-10 05:48:00,75.0,73.8,30.07,WNW,297,0.0,0.0,96,0.00,,---,0.00,VWS V14.01,2013-06-10 09:48:00,
2013-06-10 05:53:00,74.9,73.7,30.07,WNW,298,0.0,0.0,96,0.00,,---,0.00,VWS V14.01,2013-06-10 09:53:00,
2013-06-10 05:58:00,74.9,73.7,30.07,WNW,297,0.0,0.0,96,0.00,,---,0.00,VWS V14.01,2013-06-10 09:58:00,
2013-06-10 06:03:00,75.0,73.8,30.07,WNW,298,0.0,0.0,96,0.00,,---,0.00,VWS V14.01,2013-06-10 10:03:00,
2013-06-10 06:08:00,74.9,73.7,30.07,WNW,297,0.0,0.0,96,0.00,,---,0.00,VWS V14.01,2013-06-10 10:08:00,
2013-06-10 06:13:00,74.9,73.7,30.07,WNW,298,0.0,0.0,96,0.00,,---,0.00,VWS V14.01,2013-06-10 10:13:00,
2013-06-10 06:18:00,74.9,74.0,30.07,WNW,300,0.0,1.0,97,0.00,,---,0.00,VWS V14.01,2013-06-10 10:18:00,
2013-06-10 06:23:00,74.9,73.7,30.07,WNW,300,0.0,1.0,96,0.00,,---,0.00,VWS V14.01,2013-06-10 10:23:00,
2013-06-10 06:29:00,75.0,73.8,30.07,WNW,300,0.0,1.0,96,0.00,,---,0.00,VWS V14.01,2013-06-10 10:29:00,
2013-06-10 06:34:00,74.9,73.7,30.07,WNW,300,0.0,0.0,96,0.00,,---,0.00,VWS V14.01,2013-06-10 10:34:00,
2013-06-10 06:39:00,75.0,73.8,30.07,WNW,301,0.0,0.0,96,0.00,,---,0.00,VWS V14.01,2013-06-10 10:39:00,
2013-06-10 06:44:00,75.0,73.8,30.08,WNW,301,0.0,0.0,96,0.00,,---,0.00,VWS V14.01,2013-06-10 10:44:00,
2013-06-10 06:49:00,75.0,74.1,30.08,WNW,300,0.0,0.0,97,0.00,,---,0.00,VWS V14.01,2013-06-10 10:49:00,
2013-06-10 06:54:00,75.0,73.8,30.08,WNW,300,0.0,0.0,96,0.00,,---,0.00,VWS V14.01,2013-06-10 10:54:00,
2013-06-10 06:59:00,75.1,74.2,30.08,NW,321,0.0,0.0,97,0.00,,---,0.00,VWS V14.01,2013-06-10 10:59:00,
2013-06-10 07:04:00,75.2,74.0,30.08,NW,321,0.0,0.0,96,0.00,,---,0.00,VWS V14.01,2013-06-10 11:04:00,
2013-06-10 07:09:00,75.3,74.1,30.08,NNW,334,0.0,1.0,96,0.00,,---,0.00,VWS V14.01,2013-06-10 11:09:00,
2013-06-10 07:14:00,75.3,74.1,30.08,NNW,335,0.0,1.0,96,0.00,,---,0.00,VWS V14.01,2013-06-10 11:14:00,
2013-06-10 07:19:00,75.3,74.1,30.08,NNW,335,0.0,1.0,96,0.00,,---,0.00,VWS V14.01,2013-06-10 11:19:00,
2013-06-10 07:24:00,75.3,74.1,30.08,NNW,335,0.0,1.0,96,0.00,,---,0.00,VWS V14.01,2013-06-10 11:24:00,
2013-06-10 07:29:00,75.4,74.2,30.08,NNW,335,0.0,1.0,96,0.00,,---,0.00,VWS V14.01,2013-06-10 11:29:00,
2013-06-10 07:34:00,75.7,74.5,30.08,NNW,336,0.0,0.0,96,0.00,,---,0.00,VWS V14.01,2013-06-10 11:34:00,
2013-06-10 07:39:00,76.4,75.5,30.08,NNW,335,0.0,0.0,97,0.00,,---,0.00,VWS V14.01,2013-06-10 11:39:00,
2013-06-10 07:44:00,77.1,76.2,30.08,NNW,334,0.0,0.0,97,0.00,,---,0.00,VWS V14.01,2013-06-10 11:44:00,
2013-06-10 07:49:00,77.9,76.7,30.09,NNW,335,0.0,0.0,96,0.00,,---,0.00,VWS V14.01,2013-06-10 11:49:00,
2013-06-10 07:54:00,78.3,76.8,30.09,SSW,212,0.0,1.0,95,0.00,,---,0.00,VWS V14.01,2013-06-10 11:54:00,
2013-06-10 07:59:00,79.2,77.0,30.09,SW,235,0.0,1.0,93,0.00,,---,0.00,VWS V14.01,2013-06-10 11:59:00,
2013-06-10 08:05:00,80.1,76.9,30.09,WNW,298,0.0,1.0,90,0.00,,---,0.00,VWS V14.01,2013-06-10 12:05:00,
2013-06-10 08:10:00,80.9,76.7,30.09,SW,222,1.0,4.0,87,0.00,,---,0.00,VWS V14.01,2013-06-10 12:10:00,
2013-06-10 08:15:00,81.5,76.9,30.09,SE,125,0.0,4.0,86,0.00,,---,0.00,VWS V14.01,2013-06-10 12:15:00,
2013-06-10 08:20:00,81.8,76.8,30.09,ENE,70,0.0,4.0,85,0.00,,---,0.00,VWS V14.01,2013-06-10 12:20:00,
2013-06-10 08:25:00,82.3,77.3,30.09,SSW,208,0.0,4.0,85,0.00,,---,0.00,VWS V14.01,2013-06-10 12:25:00,
2013-06-10 08:30:00,82.8,77.5,30.09,ESE,116,1.0,2.0,84,0.00,,---,0.00,VWS V14.01,2013-06-10 12:30:00,
2013-06-10 08:35:00,83.0,77.3,30.10,SE,141,1.0,4.0,83,0.00,,---,0.00,VWS V14.01,2013-06-10 12:35:00,
2013-06-10 08:40:00,83.3,77.6,30.10,East,95,1.0,5.0,83,0.00,,---,0.00,VWS V14.01,2013-06-10 12:40:00,
2013-06-10 08:45:00,83.5,77.4,30.10,SE,125,1.0,5.0,82,0.00,,---,0.00,VWS V14.01,2013-06-10 12:45:00,
2013-06-10 08:50:00,83.9,77.4,30.10,SSE,155,1.0,5.0,81,0.00,,---,0.00,VWS V14.01,2013-06-10 12:50:00,
2013-06-10 08:55:00,83.8,77.3,30.10,SSE,162,2.0,7.0,81,0.00,,---,0.00,VWS V14.01,2013-06-10 12:55:00,
2013-06-10 09:00:00,83.7,77.2,30.10,SE,137,2.0,3.0,81,0.00,,---,0.00,VWS V14.01,2013-06-10 13:00:00,
2013-06-10 09:05:00,83.4,76.6,30.10,NE,47,1.0,5.0,80,0.00,,---,0.00,VWS V14.01,2013-06-10 13:05:00,
2013-06-10 09:10:00,83.4,77.0,30.10,ESE,108,0.0,5.0,81,0.00,,---,0.00,VWS V14.01,2013-06-10 13:10:00,
2013-06-10 09:15:00,83.5,76.7,30.10,SSE,155,2.0,5.0,80,0.00,,---,0.00,VWS V14.01,2013-06-10 13:15:00,
2013-06-10 09:20:00,83.9,77.1,30.10,ESE,116,1.0,5.0,80,0.00,,---,0.00,VWS V14.01,2013-06-10 13:20:00,
2013-06-10 09:25:00,84.1,76.9,30.10,East,90,3.0,5.0,79,0.00,,---,0.00,VWS V14.01,2013-06-10 13:25:00,
2013-06-10 09:30:00,83.8,76.6,30.10,SW,232,1.0,2.0,79,0.00,,---,0.00,VWS V14.01,2013-06-10 13:30:00,
2013-06-10 09:35:00,84.2,77.0,30.10,ESE,109,2.0,5.0,79,0.00,,---,0.00,VWS V14.01,2013-06-10 13:35:00,
2013-06-10 09:40:00,84.9,76.9,30.10,SSE,149,1.0,7.0,77,0.00,,---,0.00,VWS V14.01,2013-06-10 13:40:00,
2013-06-10 09:46:00,85.5,76.7,30.10,SSE,149,1.0,7.0,75,0.00,,---,0.00,VWS V14.01,2013-06-10 13:46:00,
2013-06-10 09:51:00,86.3,76.6,30.10,SE,139,1.0,7.0,73,0.00,,---,0.00,VWS V14.01,2013-06-10 13:51:00,
2013-06-10 09:56:00,86.6,76.9,30.10,SE,143,3.0,7.0,73,0.00,,---,0.00,VWS V14.01,2013-06-10 13:56:00,
2013-06-10 10:01:00,87.0,77.3,30.10,West,267,1.0,3.0,73,0.00,,---,0.00,VWS V14.01,2013-06-10 14:01:00,
2013-06-10 10:06:00,87.2,77.1,30.10,SW,215,2.0,4.0,72,0.00,,---,0.00,VWS V14.01,2013-06-10 14:06:00,
2013-06-10 10:11:00,87.3,77.2,30.10,SSE,150,1.0,6.0,72,0.00,,---,0.00,VWS V14.01,2013-06-10 14:11:00,
2013-06-10 10:16:00,87.1,77.0,30.10,WSW,252,2.0,6.0,72,0.00,,---,0.00,VWS V14.01,2013-06-10 14:16:00,
2013-06-10 10:21:00,86.4,76.3,30.10,SSE,153,0.0,6.0,72,0.00,,---,0.00,VWS V14.01,2013-06-10 14:21:00,
2013-06-10 10:27:00,86.3,76.6,30.10,South,172,3.0,6.0,73,0.00,,---,0.00,VWS V14.01,2013-06-10 14:27:00,
2013-06-10 10:32:00,86.1,76.4,30.10,ESE,116,1.0,3.0,73,0.00,,---,0.00,VWS V14.01,2013-06-10 14:32:00,
2013-06-10 10:37:00,86.1,76.4,30.10,SE,138,2.0,4.0,73,0.00,,---,0.00,VWS V14.01,2013-06-10 14:37:00,
2013-06-10 10:42:00,86.1,76.8,30.10,SE,133,1.0,4.0,74,0.00,,---,0.00,VWS V14.01,2013-06-10 14:42:00,
2013-06-10 10:47:00,85.9,76.7,30.10,ESE,103,2.0,6.0,74,0.00,,---,0.00,VWS V14.01,2013-06-10 14:47:00,
2013-06-10 10:52:00,85.4,77.0,30.10,SSE,152,0.0,6.0,76,0.00,,---,0.00,VWS V14.01,2013-06-10 14:52:00,
2013-06-10 10:57:00,85.2,77.2,30.10,South,170,1.0,6.0,77,0.00,,---,0.00,VWS V14.01,2013-06-10 14:57:00,
2013-06-10 11:02:00,84.8,76.8,30.10,SSE,165,1.0,4.0,77,0.00,,---,0.00,VWS V14.01,2013-06-10 15:02:00,
2013-06-10 11:07:00,84.7,77.8,30.10,SSW,192,0.0,4.0,80,0.00,,---,0.00,VWS V14.01,2013-06-10 15:07:00,
2013-06-10 11:12:00,84.1,77.6,30.10,SSE,165,1.0,4.0,81,0.01,,---,0.01,VWS V14.01,2013-06-10 15:12:00,
2013-06-10 11:17:00,83.3,77.2,30.10,SSW,200,0.0,4.0,82,0.01,,---,0.01,VWS V14.01,2013-06-10 15:17:00,
2013-06-10 11:22:00,83.0,77.7,30.10,NE,49,0.0,4.0,84,0.01,,---,0.01,VWS V14.01,2013-06-10 15:22:00,
2013-06-10 11:27:00,82.9,77.9,30.10,NE,45,0.0,5.0,85,0.01,,---,0.01,VWS V14.01,2013-06-10 15:27:00,
2013-06-10 11:32:00,83.3,78.3,30.09,ENE,70,1.0,1.0,85,0.01,,---,0.01,VWS V14.01,2013-06-10 15:32:00,
2013-06-10 11:37:00,83.8,77.7,30.09,SSE,155,1.0,6.0,82,0.01,,---,0.01,VWS V14.01,2013-06-10 15:37:00,
2013-06-10 11:43:00,85.0,78.5,30.09,East,91,2.0,6.0,81,0.01,,---,0.01,VWS V14.01,2013-06-10 15:43:00,
2013-06-10 11:48:00,85.3,78.1,30.09,ESE,106,1.0,6.0,79,0.01,,---,0.01,VWS V14.01,2013-06-10 15:48:00,
2013-06-10 11:53:00,85.7,78.1,30.09,ENE,58,0.0,6.0,78,0.01,,---,0.01,VWS V14.01,2013-06-10 15:53:00,
2013-06-10 11:58:00,85.9,79.0,30.09,East,85,5.0,6.0,80,0.01,,---,0.01,VWS V14.01,2013-06-10 15:58:00,
2013-06-10 12:03:00,85.9,78.6,30.09,ENE,72,1.0,5.0,79,0.01,,---,0.01,VWS V14.01,2013-06-10 16:03:00,
2013-06-10 12:08:00,85.9,77.9,30.08,SE,130,1.0,5.0,77,0.01,,---,0.01,VWS V14.01,2013-06-10 16:08:00,
2013-06-10 12:13:00,85.9,77.5,30.08,NE,54,2.0,5.0,76,0.01,,---,0.01,VWS V14.01,2013-06-10 16:13:00,
2013-06-10 12:18:00,85.8,77.8,30.08,ESE,113,3.0,6.0,77,0.01,,---,0.01,VWS V14.01,2013-06-10 16:18:00,
2013-06-10 12:23:00,85.9,77.5,30.08,SSE,152,3.0,6.0,76,0.01,,---,0.01,VWS V14.01,2013-06-10 16:23:00,
2013-06-10 12:28:00,85.6,76.8,30.08,NE,48,1.0,8.0,75,0.01,,---,0.01,VWS V14.01,2013-06-10 16:28:00,
2013-06-10 12:33:00,85.6,76.4,30.09,SSE,155,2.0,6.0,74,0.00,,---,0.01,VWS V14.01,2013-06-10 16:33:00,
2013-06-10 12:38:00,85.9,77.1,30.08,East,101,1.0,6.0,75,0.00,,---,0.01,VWS V14.01,2013-06-10 16:38:00,
2013-06-10 12:43:00,86.4,76.7,30.08,East,89,2.0,6.0,73,0.00,,---,0.01,VWS V14.01,2013-06-10 16:43:00,
2013-06-10 12:48:00,87.1,76.6,30.08,SE,126,1.0,7.0,71,0.00,,---,0.01,VWS V14.01,2013-06-10 16:48:00,
2013-06-10 12:53:00,87.8,76.8,30.08,SE,131,1.0,7.0,70,0.00,,---,0.01,VWS V14.01,2013-06-10 16:53:00,
2013-06-10 12:58:00,88.0,77.0,30.08,SE,127,1.0,7.0,70,0.00,,---,0.01,VWS V14.01,2013-06-10 16:58:00,
2013-06-10 13:03:00,87.9,76.5,30.08,East,91,1.0,7.0,69,0.00,,---,0.01,VWS V14.01,2013-06-10 17:03:00,
2013-06-10 13:09:00,88.0,77.0,30.08,SE,140,2.0,7.0,70,0.00,,---,0.01,VWS V14.01,2013-06-10 17:09:00,
2013-06-10 13:14:00,88.0,77.4,30.08,ESE,113,1.0,7.0,71,0.00,,---,0.01,VWS V14.01,2013-06-10 17:14:00,
2013-06-10 13:19:00,87.5,77.4,30.08,ESE,118,1.0,12.0,72,0.00,,---,0.01,VWS V14.01,2013-06-10 17:19:00,
2013-06-10 13:24:00,87.3,77.2,30.08,SE,141,2.0,12.0,72,0.00,,---,0.01,VWS V14.01,2013-06-10 17:24:00,
2013-06-10 13:29:00,86.8,76.3,30.07,East,101,1.0,12.0,71,0.00,,---,0.01,VWS V14.01,2013-06-10 17:29:00,
2013-06-10 13:34:00,86.4,76.7,30.07,SSW,195,2.0,3.0,73,0.00,,---,0.01,VWS V14.01,2013-06-10 17:34:00,
2013-06-10 13:39:00,85.9,76.7,30.07,SE,140,1.0,6.0,74,0.00,,---,0.01,VWS V14.01,2013-06-10 17:39:00,
2013-06-10 13:44:00,85.5,76.3,30.07,ENE,75,1.0,6.0,74,0.00,,---,0.01,VWS V14.01,2013-06-10 17:44:00,
2013-06-10 13:49:00,85.4,76.6,30.07,NNW,336,1.0,6.0,75,0.00,,---,0.01,VWS V14.01,2013-06-10 17:49:00,
2013-06-10 13:54:00,85.6,76.8,30.07,ESE,115,1.0,6.0,75,0.00,,---,0.01,VWS V14.01,2013-06-10 17:54:00,
2013-06-10 13:59:00,86.1,76.4,30.07,ENE,59,3.0,9.0,73,0.00,,---,0.01,VWS V14.01,2013-06-10 17:59:00,
2013-06-10 14:04:00,86.0,76.3,30.07,ENE,70,3.0,10.0,73,0.00,,---,0.01,VWS V14.01,2013-06-10 18:04:00,
2013-06-10 14:09:00,86.2,76.9,30.07,SE,129,2.0,10.0,74,0.00,,---,0.01,VWS V14.01,2013-06-10 18:09:00,
2013-06-10 14:14:00,87.1,76.6,30.07,South,169,1.0,10.0,71,0.00,,---,0.01,VWS V14.01,2013-06-10 18:14:00,
2013-06-10 14:19:00,87.7,77.6,30.06,ESE,110,2.0,10.0,72,0.00,,---,0.01,VWS V14.01,2013-06-10 18:19:00,
2013-06-10 14:24:00,88.0,77.8,30.06,ENE,75,5.0,11.0,72,0.00,,---,0.01,VWS V14.01,2013-06-10 18:24:00,
2013-06-10 14:29:00,87.9,78.2,30.06,SSW,212,1.0,11.0,73,0.00,,---,0.01,VWS V14.01,2013-06-10 18:29:00,
2013-06-10 14:34:00,88.7,77.2,30.06,ESE,116,0.0,5.0,69,0.00,,---,0.01,VWS V14.01,2013-06-10 18:34:00,
2013-06-10 14:39:00,89.1,77.6,30.06,SSE,165,3.0,5.0,69,0.00,,---,0.01,VWS V14.01,2013-06-10 18:39:00,
2013-06-10 14:44:00,89.1,76.7,30.06,ENE,78,2.0,6.0,67,0.00,,---,0.01,VWS V14.01,2013-06-10 18:44:00,
2013-06-10 14:49:00,89.2,77.7,30.06,South,187,2.0,8.0,69,0.00,,---,0.01,VWS V14.01,2013-06-10 18:49:00,
2013-06-10 14:54:00,89.3,77.4,30.06,WSW,255,1.0,9.0,68,0.00,,---,0.01,VWS V14.01,2013-06-10 18:54:00,
2013-06-10 14:59:00,89.2,77.7,30.06,NE,47,7.0,9.0,69,0.00,,---,0.01,VWS V14.01,2013-06-10 18:59:00,
2013-06-10 15:05:00,88.5,77.5,30.06,ENE,65,1.0,9.0,70,0.00,,---,0.01,VWS V14.01,2013-06-10 19:05:00,
2013-06-10 15:10:00,88.4,77.4,30.05,NNW,335,1.0,9.0,70,0.00,,---,0.01,VWS V14.01,2013-06-10 19:10:00,
2013-06-10 15:15:00,88.7,77.7,30.05,ENE,64,5.0,9.0,70,0.00,,---,0.01,VWS V14.01,2013-06-10 19:15:00,
2013-06-10 15:20:00,88.5,77.5,30.05,ESE,117,6.0,9.0,70,0.00,,---,0.01,VWS V14.01,2013-06-10 19:20:00,
2013-06-10 15:25:00,88.4,77.4,30.05,ENE,57,5.0,9.0,70,0.00,,---,0.01,VWS V14.01,2013-06-10 19:25:00,
2013-06-10 15:30:00,88.5,77.5,30.05,SW,219,2.0,3.0,70,0.00,,---,0.01,VWS V14.01,2013-06-10 19:30:00,
2013-06-10 15:35:00,88.7,76.3,30.05,SSW,200,2.0,5.0,67,0.00,,---,0.01,VWS V14.01,2013-06-10 19:35:00,
2013-06-10 15:40:00,88.4,77.4,30.05,SSW,201,2.0,7.0,70,0.00,,---,0.01,VWS V14.01,2013-06-10 19:40:00,
2013-06-10 15:45:00,88.3,77.7,30.05,ENE,68,2.0,9.0,71,0.00,,---,0.01,VWS V14.01,2013-06-10 19:45:00,
2013-06-10 15:50:00,87.9,76.9,30.05,SSE,149,3.0,9.0,70,0.00,,---,0.01,VWS V14.01,2013-06-10 19:50:00,
2013-06-10 15:55:00,87.5,76.9,30.05,SE,127,2.0,9.0,71,0.00,,---,0.01,VWS V14.01,2013-06-10 19:55:00,
2013-06-10 16:00:00,86.6,76.1,30.05,SSE,168,2.0,3.0,71,0.00,,---,0.01,VWS V14.01,2013-06-10 20:00:00,
2013-06-10 16:06:00,85.8,75.3,30.05,SE,135,2.0,6.0,71,0.00,,---,0.01,VWS V14.01,2013-06-10 20:06:00,
2013-06-10 16:11:00,85.3,74.4,30.05,SE,135,1.0,6.0,70,0.00,,---,0.01,VWS V14.01,2013-06-10 20:11:00,
2013-06-10 16:16:00,84.9,74.9,30.05,SE,127,3.0,6.0,72,0.00,,---,0.01,VWS V14.01,2013-06-10 20:16:00,
2013-06-10 16:21:00,84.6,74.6,30.04,East,79,3.0,6.0,72,0.00,,---,0.01,VWS V14.01,2013-06-10 20:21:00,
2013-06-10 16:26:00,84.3,75.1,30.04,ESE,108,1.0,6.0,74,0.00,,---,0.01,VWS V14.01,2013-06-10 20:26:00,
2013-06-10 16:31:00,84.0,75.2,30.03,SE,124,1.0,3.0,75,0.00,,---,0.01,VWS V14.01,2013-06-10 20:31:00,
2013-06-10 16:36:00,83.8,75.0,30.03,SE,141,0.0,3.0,75,0.00,,---,0.01,VWS V14.01,2013-06-10 20:36:00,
2013-06-10 16:41:00,83.7,75.3,30.04,ENE,77,0.0,4.0,76,0.00,,---,0.01,VWS V14.01,2013-06-10 20:41:00,
2013-06-10 16:47:00,83.4,75.4,30.04,NE,41,1.0,4.0,77,0.00,,---,0.01,VWS V14.01,2013-06-10 20:47:00,
2013-06-10 16:52:00,83.2,75.6,30.04,East,92,1.0,5.0,78,0.00,,---,0.01,VWS V14.01,2013-06-10 20:52:00,
2013-06-10 16:57:00,83.0,75.4,30.04,NNE,30,1.0,5.0,78,0.00,,---,0.01,VWS V14.01,2013-06-10 20:57:00,
2013-06-10 17:02:00,83.0,75.4,30.04,NE,40,0.0,1.0,78,0.00,,---,0.01,VWS V14.01,2013-06-10 21:02:00,
2013-06-10 17:07:00,82.8,76.0,30.04,ESE,106,1.0,3.0,80,0.00,,---,0.01,VWS V14.01,2013-06-10 21:07:00,
2013-06-10 17:12:00,82.7,76.3,30.03,ESE,105,4.0,5.0,81,0.00,,---,0.01,VWS V14.01,2013-06-10 21:12:00,
2013-06-10 17:17:00,82.4,76.4,30.04,ESE,120,1.0,6.0,82,0.00,,---,0.01,VWS V14.01,2013-06-10 21:17:00,
2013-06-10 17:22:00,82.2,76.2,30.03,ESE,109,1.0,6.0,82,0.00,,---,0.01,VWS V14.01,2013-06-10 21:22:00,
2013-06-10 17:27:00,82.1,76.4,30.03,East,91,3.0,6.0,83,0.00,,---,0.01,VWS V14.01,2013-06-10 21:27:00,
2013-06-10 17:32:00,81.9,75.9,30.03,SE,145,1.0,2.0,82,0.00,,---,0.01,VWS V14.01,2013-06-10 21:32:00,
2013-06-10 17:37:00,81.9,75.9,30.04,SE,129,1.0,5.0,82,0.00,,---,0.01,VWS V14.01,2013-06-10 21:37:00,
2013-06-10 17:43:00,81.8,76.1,30.04,NE,51,1.0,5.0,83,0.00,,---,0.01,VWS V14.01,2013-06-10 21:43:00,
2013-06-10 17:48:00,81.8,76.1,30.04,SE,134,3.0,5.0,83,0.00,,---,0.01,VWS V14.01,2013-06-10 21:48:00,
2013-06-10 17:53:00,81.7,76.4,30.03,ENE,72,0.0,5.0,84,0.00,,---,0.01,VWS V14.01,2013-06-10 21:53:00,
2013-06-10 17:58:00,81.7,76.4,30.03,SE,136,0.0,5.0,84,0.00,,---,0.01,VWS V14.01,2013-06-10 21:58:00,
2013-06-10 18:03:00,81.6,76.3,30.03,SE,134,1.0,4.0,84,0.00,,---,0.01,VWS V14.01,2013-06-10 22:03:00,
2013-06-10 18:08:00,81.5,76.2,30.03,ESE,122,1.0,5.0,84,0.00,,---,0.01,VWS V14.01,2013-06-10 22:08:00,
2013-06-10 18:13:00,81.5,76.2,30.03,ESE,123,0.0,5.0,84,0.00,,---,0.01,VWS V14.01,2013-06-10 22:13:00,
2013-06-10 18:18:00,81.5,76.2,30.03,SE,129,1.0,5.0,84,0.00,,---,0.01,VWS V14.01,2013-06-10 22:18:00,
2013-06-10 18:23:00,81.4,76.1,30.03,ESE,103,0.0,5.0,84,0.00,,---,0.01,VWS V14.01,2013-06-10 22:23:00,
2013-06-10 18:28:00,81.5,76.2,30.03,SE,126,1.0,5.0,84,0.00,,---,0.01,VWS V14.01,2013-06-10 22:28:00,
2013-06-10 18:33:00,81.5,76.2,30.03,ESE,110,2.0,2.0,84,0.00,,---,0.01,VWS V14.01,2013-06-10 22:33:00,
2013-06-10 18:38:00,81.4,76.1,30.03,SE,133,0.0,3.0,84,0.00,,---,0.01,VWS V14.01,2013-06-10 22:38:00,
2013-06-10 18:43:00,81.3,76.4,30.03,SE,139,1.0,5.0,85,0.00,,---,0.01,VWS V14.01,2013-06-10 22:43:00,
2013-06-10 18:48:00,81.3,76.4,30.03,ESE,107,2.0,5.0,85,0.00,,---,0.01,VWS V14.01,2013-06-10 22:48:00,
2013-06-10 18:53:00,81.2,76.3,30.03,SSE,156,0.0,9.0,85,0.00,,---,0.01,VWS V14.01,2013-06-10 22:53:00,
2013-06-10 18:58:00,81.2,76.3,30.04,NE,50,4.0,9.0,85,0.00,,---,0.01,VWS V14.01,2013-06-10 22:58:00,
2013-06-10 19:03:00,81.1,76.2,30.04,SE,124,0.0,2.0,85,0.00,,---,0.01,VWS V14.01,2013-06-10 23:03:00,
2013-06-10 19:08:00,81.1,76.2,30.04,SE,138,1.0,2.0,85,0.00,,---,0.01,VWS V14.01,2013-06-10 23:08:00,
2013-06-10 19:13:00,81.1,76.2,30.04,SE,141,0.0,2.0,85,0.00,,---,0.01,VWS V14.01,2013-06-10 23:13:00,
2013-06-10 19:18:00,81.1,76.2,30.04,East,83,0.0,2.0,85,0.00,,---,0.01,VWS V14.01,2013-06-10 23:18:00,
2013-06-10 19:23:00,81.1,76.2,30.04,NNE,32,0.0,2.0,85,0.00,,---,0.01,VWS V14.01,2013-06-10 23:23:00,
2013-06-10 19:28:00,81.0,76.1,30.04,NNE,32,1.0,2.0,85,0.00,,---,0.01,VWS V14.01,2013-06-10 23:28:00,
2013-06-10 19:33:00,81.0,76.1,30.04,East,80,0.0,1.0,85,0.00,,---,0.01,VWS V14.01,2013-06-10 23:33:00,
2013-06-10 19:38:00,81.0,76.4,30.04,East,79,0.0,3.0,86,0.00,,---,0.01,VWS V14.01,2013-06-10 23:38:00,
2013-06-10 19:43:00,81.0,76.4,30.04,ENE,73,0.0,3.0,86,0.00,,---,0.01,VWS V14.01,2013-06-10 23:43:00,
2013-06-10 19:48:00,80.9,76.3,30.04,SE,129,0.0,3.0,86,0.00,,---,0.01,VWS V14.01,2013-06-10 23:48:00,
2013-06-10 19:54:00,80.9,76.3,30.04,ESE,117,0.0,3.0,86,0.00,,---,0.01,VWS V14.01,2013-06-10 23:54:00,
2013-06-10 19:59:00,80.9,76.3,30.04,East,97,1.0,3.0,86,0.00,,---,0.01,VWS V14.01,2013-06-10 23:59:00,
2013-06-10 20:04:00,80.9,76.3,30.04,ESE,120,0.0,2.0,86,0.00,,---,0.01,VWS V14.01,2013-06-11 00:04:00,
2013-06-10 20:09:00,80.8,76.2,30.04,East,91,0.0,3.0,86,0.00,,---,0.01,VWS V14.01,2013-06-11 00:09:00,
2013-06-10 20:14:00,80.7,76.1,30.04,SE,141,0.0,3.0,86,0.00,,---,0.01,VWS V14.01,2013-06-11 00:14:00,
2013-06-10 20:19:00,80.6,76.0,30.05,NNE,23,0.0,3.0,86,0.00,,---,0.01,VWS V14.01,2013-06-11 00:19:00,
2013-06-10 20:24:00,80.5,75.9,30.05,ESE,107,0.0,3.0,86,0.00,,---,0.01,VWS V14.01,2013-06-11 00:24:00,
2013-06-10 20:29:00,80.5,76.3,30.05,ESE,123,0.0,3.0,87,0.00,,---,0.01,VWS V14.01,2013-06-11 00:29:00,
2013-06-10 20:34:00,80.3,76.1,30.05,ENE,74,0.0,1.0,87,0.00,,---,0.01,VWS V14.01,2013-06-11 00:34:00,
2013-06-10 20:39:00,80.3,76.1,30.04,East,82,0.0,1.0,87,0.00,,---,0.01,VWS V14.01,2013-06-11 00:39:00,
2013-06-10 20:44:00,80.2,76.0,30.05,East,82,0.0,1.0,87,0.00,,---,0.01,VWS V14.01,2013-06-11 00:44:00,
2013-06-10 20:49:00,80.1,75.9,30.05,East,82,0.0,1.0,87,0.00,,---,0.01,VWS V14.01,2013-06-11 00:49:00,
2013-06-10 20:54:00,80.0,75.8,30.05,East,101,0.0,1.0,87,0.00,,---,0.01,VWS V14.01,2013-06-11 00:54:00,
2013-06-10 20:59:00,80.0,76.1,30.05,ESE,105,0.0,1.0,88,0.00,,---,0.01,VWS V14.01,2013-06-11 00:59:00,
2013-06-10 21:04:00,79.9,76.0,30.05,East,96,0.0,1.0,88,0.00,,---,0.01,VWS V14.01,2013-06-11 01:04:00,
2013-06-10 21:09:00,79.9,76.0,30.05,ESE,116,0.0,2.0,88,0.00,,---,0.01,VWS V14.01,2013-06-11 01:09:00,
2013-06-10 21:14:00,79.8,75.9,30.05,ESE,103,1.0,2.0,88,0.00,,---,0.01,VWS V14.01,2013-06-11 01:14:00,
2013-06-10 21:20:00,79.8,75.9,30.05,ESE,103,0.0,2.0,88,0.00,,---,0.01,VWS V14.01,2013-06-11 01:20:00,
2013-06-10 21:25:00,79.7,75.8,30.06,ESE,103,0.0,2.0,88,0.00,,---,0.01,VWS V14.01,2013-06-11 01:25:00,
2013-06-10 21:30:00,79.6,76.1,30.06,SSE,152,0.0,2.0,89,0.00,,---,0.01,VWS V14.01,2013-06-11 01:30:00,
2013-06-10 21:35:00,79.5,76.0,30.06,SSE,153,0.0,0.0,89,0.00,,---,0.01,VWS V14.01,2013-06-11 01:35:00,
2013-06-10 21:40:00,79.4,75.9,30.06,SE,141,0.0,0.0,89,0.00,,---,0.01,VWS V14.01,2013-06-11 01:40:00,
2013-06-10 21:45:00,79.4,75.9,30.07,East,82,1.0,2.0,89,0.00,,---,0.01,VWS V14.01,2013-06-11 01:45:00,
2013-06-10 21:50:00,79.3,75.8,30.07,East,82,0.0,2.0,89,0.00,,---,0.01,VWS V14.01,2013-06-11 01:50:00,
2013-06-10 21:55:00,79.2,75.7,30.07,East,90,0.0,2.0,89,0.00,,---,0.01,VWS V14.01,2013-06-11 01:55:00,
2013-06-10 22:00:00,79.2,75.7,30.07,East,91,0.0,0.0,89,0.00,,---,0.01,VWS V14.01,2013-06-11 02:00:00,
2013-06-10 22:05:00,79.0,75.8,30.07,East,91,0.0,0.0,90,0.00,,---,0.01,VWS V14.01,2013-06-11 02:05:00,
2013-06-10 22:10:00,79.0,75.8,30.07,ENE,77,0.0,1.0,90,0.00,,---,0.01,VWS V14.01,2013-06-11 02:10:00,
2013-06-10 22:15:00,78.9,75.7,30.07,East,79,0.0,2.0,90,0.00,,---,0.01,VWS V14.01,2013-06-11 02:15:00,
2013-06-10 22:20:00,78.9,75.7,30.08,East,79,0.0,2.0,90,0.00,,---,0.01,VWS V14.01,2013-06-11 02:20:00,
2013-06-10 22:25:00,78.8,75.6,30.08,East,79,0.0,2.0,90,0.00,,---,0.01,VWS V14.01,2013-06-11 02:25:00,
2013-06-10 22:30:00,78.8,75.6,30.08,East,79,0.0,0.0,90,0.00,,---,0.01,VWS V14.01,2013-06-11 02:30:00,
2013-06-10 22:35:00,78.8,75.6,30.08,East,82,0.0,1.0,90,0.00,,---,0.01,VWS V14.01,2013-06-11 02:35:00,
2013-06-10 22:40:00,78.8,75.6,30.08,East,82,0.0,1.0,90,0.00,,---,0.01,VWS V14.01,2013-06-11 02:40:00,
2013-06-10 22:45:00,78.8,75.6,30.08,East,82,0.0,1.0,90,0.00,,---,0.01,VWS V14.01,2013-06-11 02:45:00,
2013-06-10 22:51:00,78.8,75.6,30.08,East,82,0.0,1.0,90,0.00,,---,0.01,VWS V14.01,2013-06-11 02:51:00,
2013-06-10 22:56:00,78.8,75.6,30.09,ESE,110,0.0,1.0,90,0.00,,---,0.01,VWS V14.01,2013-06-11 02:56:00,
2013-06-10 23:01:00,78.8,75.6,30.09,NNW,339,0.0,0.0,90,0.00,,---,0.01,VWS V14.01,2013-06-11 03:01:00,
2013-06-10 23:06:00,78.8,75.6,30.09,SW,219,0.0,2.0,90,0.00,,---,0.01,VWS V14.01,2013-06-11 03:06:00,
2013-06-10 23:11:00,78.8,75.9,30.09,East,84,0.0,2.0,91,0.00,,---,0.01,VWS V14.01,2013-06-11 03:11:00,
2013-06-10 23:16:00,78.8,75.9,30.08,NE,47,0.0,2.0,91,0.00,,---,0.01,VWS V14.01,2013-06-11 03:16:00,
2013-06-10 23:21:00,78.8,75.9,30.08,ENE,72,0.0,2.0,91,0.00,,---,0.01,VWS V14.01,2013-06-11 03:21:00,
2013-06-10 23:26:00,78.8,75.9,30.08,ENE,71,0.0,2.0,91,0.00,,---,0.01,VWS V14.01,2013-06-11 03:26:00,
2013-06-10 23:31:00,78.8,75.9,30.08,East,97,0.0,0.0,91,0.00,,---,0.01,VWS V14.01,2013-06-11 03:31:00,
2013-06-10 23:36:00,78.8,75.9,30.08,East,98,0.0,1.0,91,0.00,,---,0.01,VWS V14.01,2013-06-11 03:36:00,
2013-06-10 23:41:00,78.8,75.9,30.08,NE,47,0.0,1.0,91,0.00,,---,0.01,VWS V14.01,2013-06-11 03:41:00,
2013-06-10 23:46:00,78.7,75.9,30.08,NE,49,0.0,1.0,91,0.00,,---,0.01,VWS V14.01,2013-06-11 03:46:00,
2013-06-10 23:51:00,78.7,75.9,30.08,NNE,13,0.0,1.0,91,0.00,,---,0.01,VWS V14.01,2013-06-11 03:51:00,
2013-06-10 23:57:00,78.7,76.2,30.08,NNE,13,0.0,1.0,92,0.00,,---,0.01,VWS V14.01,2013-06-11 03:57:00,